Terminal Aerodrome Forecast
Issued by NWS

Home | Current Version | Previous Version | Text Only | Print | Product List | Glossary Off
Versions: 1 2 3 4 5 6 7 8 9 10 11 12 13 14 15 16 17

212
FTUS43 KTOP 222338
TAFFOE
TAF
KFOE 222338Z 2300/2324 05010KT P6SM BKN060
     FM230200 03006KT P6SM BKN060
     FM230600 03005KT P6SM SCT120=

USA.gov is the U.S. government's official web portal to all federal, state and local government web resources and services.